Eminence, MO

10:29 AM CST on December 19, 2014 (GMT -0600)
Poplar Bluff Municipal | Change Station
CLOSE
Current Station
Airport
Location: Poplar Bluff,
Elevation: 328 ft
Nearby Weather Stations

Elev 328 ft 36.77 °N, 90.32 °W | Updated 36 minutes ago

Overcast
Overcast
37 °F
Feels Like 32 °F
N
7
Wind Variable Wind from ENE

Today
High -- | Low -- °F
--% Chance of Precip.
Yesterday
High -- | Low -- °F
Precip. -- in
7:14 AM 4:51 PM
Waning Crescent, 7% visible
Pressure 30.32 in
Visibility 7.0 miles
Clouds Few 1300 ft
Overcast 3300 ft
Windchill 32 °F
Dew Point 29 °F
Humidity 73%
Rainfall 0.00 in
Snow Depth Not available.
UV 1 out of 12
Pollen 3.90 out of 12
Air Quality Not available.
Flu Activity Not available.
METAR KPOF 191553Z AUTO 06006KT 7SM FEW013 OVC033 03/M02 A3031 RMK AO2 SLP268 I1000 T00281017

More Conditions Fewer Conditions

Pressure 30.32 in
Visibility 7.0 miles
Clouds Few 1300 ft
Overcast 3300 ft
Windchill 32 °F
Dew Point 29 °F
Humidity 73%
Rainfall 0.00 in
Snow Depth Not available.
UV 1 out of 12
Pollen 3.90 out of 12
Air Quality Not available.
Flu Activity Not available.
METAR KPOF 191553Z AUTO 06006KT 7SM FEW013 OVC033 03/M02 A3031 RMK AO2 SLP268 I1000 T00281017

More Conditions Fewer Conditions

10-Day Weather Forecast

Almanac

Astronomy

Dec. 19, 2014 Rise Set
Actual Time
Civil Twilight
Nautical Twilight
Astronomical Twilight
Moon
Length of Visible Light
Length of Day
Tomorrow will be .
, % of the Moon is Illuminated

Today's Extremes

State Highs State Lows

Community

WunderPhotos

Upload Photos

1,779,005 photos uploaded!

WunderBlogs® & News

Nearby

Air Quality

  Air Quality AQ Index Pollutant
Not available.

Snow Depth

Station Depth Elevation

Earthquake Activity

City Distance Mag. Time & Date
Minimum magnitude displayed is 2.5.

Coastal Water Temperatures

Place Temperature

Nearby Weather Stations